createdAt,value
2023-04-23T00:00:17.730Z,100074.31
2023-04-23T00:02:44.687Z,100059.81
2023-04-23T00:05:13.077Z,100062.00
2023-04-23T00:07:39.995Z,100056.84
2023-04-23T00:10:08.930Z,100054.34
2023-04-23T00:12:35.673Z,100055.22
2023-04-23T00:15:02.571Z,100049.38
2023-04-23T00:17:29.377Z,100047.63
2023-04-23T00:19:56.198Z,100050.88
2023-04-23T00:22:22.942Z,100055.78
2023-04-23T00:24:49.746Z,100051.69
2023-04-23T00:27:18.018Z,100044.06
2023-04-23T00:29:46.248Z,100034.28
2023-04-23T00:32:14.458Z,100036.56
2023-04-23T00:34:41.508Z,100030.84
2023-04-23T00:37:08.680Z,100030.03
2023-04-23T00:39:37.479Z,100032.00
2023-04-23T00:42:10.367Z,100032.78
2023-04-23T00:44:37.398Z,100030.47
2023-04-23T00:47:04.167Z,100037.41
2023-04-23T00:49:30.901Z,100033.16
2023-04-23T00:51:57.651Z,100044.81
2023-04-23T00:54:24.394Z,100036.19
2023-04-23T00:56:51.204Z,100034.03
2023-04-23T00:59:17.974Z,100039.34
2023-04-23T01:01:45.562Z,100037.72
2023-04-23T01:04:12.481Z,100044.03
2023-04-23T01:06:39.488Z,100035.91
2023-04-23T01:09:06.393Z,100042.88
2023-04-23T01:11:33.256Z,100033.22
2023-04-23T01:14:00.200Z,100041.75
2023-04-23T01:16:27.002Z,100033.69
2023-04-23T01:18:53.838Z,100037.97
2023-04-23T01:21:20.931Z,100035.81
2023-04-23T01:23:47.729Z,100045.09
2023-04-23T01:26:14.895Z,100036.44
2023-04-23T01:28:41.634Z,100042.69
2023-04-23T01:31:08.473Z,100035.38
2023-04-23T01:33:35.793Z,100035.91
2023-04-23T01:36:02.545Z,100034.50
2023-04-23T01:38:29.315Z,100030.25
2023-04-23T01:40:56.063Z,100029.78
2023-04-23T01:43:22.791Z,100029.38
2023-04-23T01:45:49.643Z,100032.19
2023-04-23T01:48:16.438Z,100025.16
2023-04-23T01:50:43.212Z,100022.31
2023-04-23T01:53:10.275Z,100018.44
2023-04-23T01:55:37.013Z,100011.44
2023-04-23T01:58:03.878Z,100020.97
2023-04-23T02:00:30.885Z,100019.22
2023-04-23T02:02:57.762Z,100018.84
2023-04-23T02:05:24.666Z,100027.00
2023-04-23T02:07:51.442Z,100016.19
2023-04-23T02:10:21.281Z,100023.28
2023-04-23T02:12:48.063Z,100020.84
2023-04-23T02:15:14.818Z,100023.94
2023-04-23T02:17:41.646Z,100021.97
2023-04-23T02:20:09.575Z,100024.91
2023-04-23T02:22:36.615Z,100025.00
2023-04-23T02:25:03.446Z,100023.22
2023-04-23T02:27:30.272Z,100021.09
2023-04-23T02:29:57.030Z,100025.44
2023-04-23T02:32:23.835Z,100022.69
2023-04-23T02:34:50.924Z,100021.81
2023-04-23T02:37:17.793Z,100017.81
2023-04-23T02:39:44.575Z,100016.91
2023-04-23T02:42:11.333Z,100023.00
2023-04-23T02:44:38.130Z,100019.13
2023-04-23T02:47:05.003Z,100016.63
2023-04-23T02:49:31.837Z,100026.53
2023-04-23T02:51:58.588Z,100020.19
2023-04-23T02:54:25.465Z,100013.97
2023-04-23T02:56:52.232Z,100011.34
2023-04-23T02:59:19.005Z,100009.66
2023-04-23T03:01:45.761Z,100007.75
2023-04-23T03:04:12.744Z,100010.09
2023-04-23T03:06:39.573Z,100016.19
2023-04-23T03:09:06.555Z,100015.03
2023-04-23T03:11:33.304Z,100012.28
2023-04-23T03:14:00.063Z,100010.97
2023-04-23T03:16:26.877Z,100011.50
2023-04-23T03:18:53.679Z,100017.00
2023-04-23T03:21:20.508Z,100019.31
2023-04-23T03:23:47.353Z,100021.53
2023-04-23T03:26:14.083Z,100012.59
2023-04-23T03:28:40.858Z,100017.41
2023-04-23T03:31:07.718Z,100018.19
2023-04-23T03:33:34.675Z,100016.97
2023-04-23T03:36:01.441Z,100019.34
2023-04-23T03:38:28.212Z,100019.44
2023-04-23T03:40:55.120Z,100020.69
2023-04-23T03:43:21.888Z,100025.25
2023-04-23T03:45:48.683Z,100027.53
2023-04-23T03:48:15.993Z,100029.59
2023-04-23T03:50:42.815Z,100025.94
2023-04-23T03:53:10.162Z,100018.97
2023-04-23T03:55:36.920Z,100024.03
2023-04-23T03:58:03.685Z,100027.16
2023-04-23T04:00:30.510Z,100011.69
2023-04-23T04:02:57.424Z,100019.63
2023-04-23T04:05:24.812Z,100020.00
2023-04-23T04:07:51.593Z,100027.50
2023-04-23T04:10:18.454Z,100026.59
2023-04-23T04:12:47.720Z,100029.75
2023-04-23T04:15:14.583Z,100032.75
2023-04-23T04:17:41.421Z,100030.66
2023-04-23T04:20:08.413Z,100028.16
2023-04-23T04:22:35.178Z,100031.00
2023-04-23T04:25:01.922Z,100033.31
2023-04-23T04:27:28.681Z,100024.97
2023-04-23T04:29:55.722Z,100026.63
2023-04-23T04:32:23.283Z,100031.91
2023-04-23T04:34:50.603Z,100033.66
2023-04-23T04:37:17.615Z,100039.78
2023-04-23T04:39:44.497Z,100036.97
2023-04-23T04:42:12.940Z,100035.63
2023-04-23T04:44:39.941Z,100040.34
2023-04-23T04:47:07.938Z,100037.78
2023-04-23T04:49:34.778Z,100042.72
2023-04-23T04:52:01.836Z,100038.81
2023-04-23T04:54:28.659Z,100038.22
2023-04-23T04:56:55.488Z,100036.34
2023-04-23T04:59:22.233Z,100038.94
2023-04-23T05:01:48.972Z,100041.34
2023-04-23T05:04:16.071Z,100044.88
2023-04-23T05:06:42.936Z,100050.88
2023-04-23T05:09:10.469Z,100044.94
2023-04-23T05:11:37.330Z,100049.03
2023-04-23T05:14:04.513Z,100047.97
2023-04-23T05:16:31.387Z,100045.16
2023-04-23T05:18:58.206Z,100042.38
2023-04-23T05:21:27.028Z,100042.84
2023-04-23T05:23:53.795Z,100043.41
2023-04-23T05:26:20.663Z,100047.19
2023-04-23T05:28:47.415Z,100053.25
2023-04-23T05:31:14.206Z,100045.19
2023-04-23T05:33:49.385Z,100043.13
2023-04-23T05:36:17.185Z,100047.56
2023-04-23T05:38:43.987Z,100048.13
2023-04-23T05:41:10.820Z,100055.69
2023-04-23T05:43:37.579Z,100058.28
2023-04-23T05:46:06.351Z,100060.53
2023-04-23T05:48:33.263Z,100058.03
2023-04-23T05:51:00.175Z,100055.72
2023-04-23T05:53:26.994Z,100075.75
2023-04-23T05:55:53.779Z,100069.22
2023-04-23T05:58:20.667Z,100070.88
2023-04-23T06:00:47.496Z,100072.50
2023-04-23T06:03:14.775Z,100079.28
2023-04-23T06:05:43.177Z,100075.34
2023-04-23T06:08:10.144Z,100078.78
2023-04-23T06:10:36.972Z,100081.75
2023-04-23T06:13:03.759Z,100085.97
2023-04-23T06:15:30.715Z,100087.50
2023-04-23T06:17:57.846Z,100096.00
2023-04-23T06:20:24.743Z,100088.66
2023-04-23T06:22:51.514Z,100094.00
2023-04-23T06:25:18.305Z,100100.47
2023-04-23T06:27:45.159Z,100099.00
2023-04-23T06:30:11.965Z,100089.16
2023-04-23T06:32:38.790Z,100103.53
2023-04-23T06:35:06.216Z,100106.91
2023-04-23T06:37:33.190Z,100111.78
2023-04-23T06:40:00.246Z,100109.22
2023-04-23T06:42:27.090Z,100110.53
2023-04-23T06:44:53.929Z,100112.63
2023-04-23T06:47:20.706Z,100109.78
2023-04-23T06:49:47.517Z,100117.16
2023-04-23T06:52:14.282Z,100115.13
2023-04-23T06:54:41.380Z,100115.13
2023-04-23T06:57:08.315Z,100105.22
2023-04-23T06:59:35.109Z,100113.03
2023-04-23T07:02:02.038Z,100112.41
2023-04-23T07:04:28.827Z,100117.44
2023-04-23T07:06:55.620Z,100106.75
2023-04-23T07:09:23.039Z,100107.00
2023-04-23T07:11:49.784Z,100105.53
2023-04-23T07:14:16.546Z,100114.81
2023-04-23T07:16:43.340Z,100120.03
2023-04-23T07:19:10.319Z,100121.28
2023-04-23T07:21:37.219Z,100127.97
2023-04-23T07:24:06.741Z,100121.38
2023-04-23T07:26:33.689Z,100122.38
2023-04-23T07:29:01.266Z,100125.72
2023-04-23T07:31:28.458Z,100129.16
2023-04-23T07:33:55.762Z,100123.94
2023-04-23T07:36:22.530Z,100137.00
2023-04-23T07:38:49.603Z,100133.75
2023-04-23T07:41:16.374Z,100133.50
2023-04-23T07:43:43.127Z,100141.34
2023-04-23T07:46:09.887Z,100136.91
2023-04-23T07:48:36.644Z,100139.84
2023-04-23T07:51:03.417Z,100143.66
2023-04-23T07:53:30.171Z,100137.56
2023-04-23T07:55:56.938Z,100153.63
2023-04-23T07:58:23.764Z,100140.44
2023-04-23T08:00:50.743Z,100145.34
2023-04-23T08:03:17.640Z,100148.66
2023-04-23T08:05:44.732Z,100148.88
2023-04-23T08:08:11.523Z,100154.25
2023-04-23T08:10:38.252Z,100157.69
2023-04-23T08:13:05.017Z,100152.84
2023-04-23T08:15:31.830Z,100154.03
2023-04-23T08:17:58.619Z,100154.50
2023-04-23T08:20:25.595Z,100150.50
2023-04-23T08:22:53.625Z,100151.50
2023-04-23T08:25:20.987Z,100151.84
2023-04-23T08:27:47.873Z,100150.94
2023-04-23T08:30:14.685Z,100151.34
2023-04-23T08:32:41.548Z,100145.66
2023-04-23T08:35:08.487Z,100140.59
2023-04-23T08:37:35.329Z,100145.09
2023-04-23T08:40:02.091Z,100140.28
2023-04-23T08:42:28.842Z,100134.66
2023-04-23T08:44:55.571Z,100135.03
2023-04-23T08:47:22.318Z,100137.47
2023-04-23T08:49:50.595Z,100132.44
2023-04-23T08:52:17.797Z,100138.88
2023-04-23T08:54:44.538Z,100148.47
2023-04-23T08:57:11.299Z,100157.19
2023-04-23T08:59:38.023Z,100155.22
2023-04-23T09:02:09.767Z,100163.16
2023-04-23T09:04:36.807Z,100165.94
2023-04-23T09:07:04.537Z,100163.50
2023-04-23T09:09:31.282Z,100167.69
2023-04-23T09:11:58.043Z,100170.09
2023-04-23T09:14:25.472Z,100171.69
2023-04-23T09:16:52.250Z,100174.31
2023-04-23T09:19:19.008Z,100180.09
2023-04-23T09:21:46.164Z,100178.66
2023-04-23T09:24:13.011Z,100178.56
2023-04-23T09:26:39.768Z,100175.63
2023-04-23T09:29:06.498Z,100173.94
2023-04-23T09:31:33.392Z,100166.00
2023-04-23T09:34:00.212Z,100174.84
2023-04-23T09:36:28.237Z,100169.84
2023-04-23T09:38:55.042Z,100170.88
2023-04-23T09:41:21.886Z,100169.03
2023-04-23T09:43:48.809Z,100167.56
2023-04-23T09:46:15.562Z,100173.94
2023-04-23T09:48:45.837Z,100171.03
2023-04-23T09:51:12.582Z,100164.69
2023-04-23T09:53:40.310Z,100167.03
2023-04-23T09:56:07.151Z,100165.44
2023-04-23T09:58:33.978Z,100167.03
2023-04-23T10:01:00.755Z,100169.22
2023-04-23T10:03:27.702Z,100162.19
2023-04-23T10:06:01.321Z,100169.44
2023-04-23T10:08:29.225Z,100168.38
2023-04-23T10:11:09.581Z,100174.56
2023-04-23T10:13:40.923Z,100179.16
2023-04-23T10:16:21.200Z,100176.41
2023-04-23T10:18:49.684Z,100172.78
2023-04-23T10:21:16.485Z,100178.41
2023-04-23T10:23:43.308Z,100175.41
2023-04-23T10:26:10.098Z,100179.13
2023-04-23T10:28:36.997Z,100177.63
2023-04-23T10:31:03.874Z,100160.84
2023-04-23T10:33:37.332Z,100160.84
2023-04-23T10:36:09.607Z,100160.34
2023-04-23T10:38:39.292Z,100164.94
2023-04-23T10:41:12.384Z,100163.22
2023-04-23T10:43:39.155Z,100161.38
2023-04-23T10:46:06.021Z,100168.25
2023-04-23T10:48:32.799Z,100165.03
2023-04-23T10:51:17.445Z,100161.94
2023-04-23T10:53:46.539Z,100158.47
2023-04-23T10:56:13.481Z,100153.94
2023-04-23T10:58:40.224Z,100154.63
2023-04-23T11:01:06.961Z,100153.84
2023-04-23T11:03:34.209Z,100157.78
2023-04-23T11:06:01.662Z,100148.75
2023-04-23T11:08:28.396Z,100137.44
2023-04-23T11:10:56.363Z,100138.72
2023-04-23T11:13:23.694Z,100134.09
2023-04-23T11:15:50.525Z,100129.88
2023-04-23T11:18:17.331Z,100132.16
2023-04-23T11:20:44.079Z,100123.91
2023-04-23T11:23:10.929Z,100113.97
2023-04-23T11:25:37.689Z,100121.31
2023-04-23T11:28:04.416Z,100124.50
2023-04-23T11:30:31.273Z,100131.25
2023-04-23T11:32:59.811Z,100132.47
2023-04-23T11:35:33.420Z,100141.16
2023-04-23T11:38:00.393Z,100144.00
2023-04-23T11:40:30.283Z,100144.31
2023-04-23T11:42:57.562Z,100158.19
2023-04-23T11:45:24.373Z,100155.91
2023-04-23T11:47:51.162Z,100158.25
2023-04-23T11:50:18.010Z,100158.13
2023-04-23T11:52:44.755Z,100147.81
2023-04-23T11:55:12.768Z,100142.31
2023-04-23T11:57:39.492Z,100143.66
2023-04-23T12:00:06.341Z,100138.84
2023-04-23T12:02:33.229Z,100138.78
2023-04-23T12:05:00.072Z,100123.41
2023-04-23T12:07:27.299Z,100120.13
2023-04-23T12:09:54.040Z,100120.31
2023-04-23T12:12:21.016Z,100120.91
2023-04-23T12:14:47.776Z,100125.25
2023-04-23T12:17:14.613Z,100119.09
2023-04-23T12:19:44.674Z,100116.88
2023-04-23T12:22:11.434Z,100118.97
2023-04-23T12:24:38.168Z,100110.13
2023-04-23T12:27:05.044Z,100109.56
2023-04-23T12:29:31.878Z,100113.22
2023-04-23T12:31:58.660Z,100113.22
2023-04-23T12:34:25.477Z,100111.09
2023-04-23T12:36:52.264Z,100118.13
2023-04-23T12:39:19.008Z,100107.63
2023-04-23T12:41:45.771Z,100109.13
2023-04-23T12:44:12.538Z,100103.44
2023-04-23T12:46:39.280Z,100106.69
2023-04-23T12:49:06.342Z,100102.59
2023-04-23T12:51:33.104Z,100105.31
2023-04-23T12:53:59.901Z,100099.38
2023-04-23T12:56:26.704Z,100092.78
2023-04-23T12:58:53.516Z,100099.28
2023-04-23T13:01:20.249Z,100093.75
2023-04-23T13:03:47.252Z,100087.16
2023-04-23T13:06:14.074Z,100089.34
2023-04-23T13:08:40.841Z,100085.03
2023-04-23T13:11:07.583Z,100079.03
2023-04-23T13:13:34.350Z,100075.06
2023-04-23T13:16:01.290Z,100079.00
2023-04-23T13:18:28.037Z,100073.00
2023-04-23T13:20:54.839Z,100063.63
2023-04-23T13:23:21.663Z,100057.88
2023-04-23T13:25:48.428Z,100056.72
2023-04-23T13:28:15.669Z,100050.72
2023-04-23T13:30:42.561Z,100043.66
2023-04-23T13:33:09.372Z,100036.28
2023-04-23T13:35:37.633Z,100041.75
2023-04-23T13:38:04.453Z,100028.91
2023-04-23T13:40:31.196Z,100028.88
2023-04-23T13:42:58.002Z,100019.78
2023-04-23T13:45:24.795Z,100021.72
2023-04-23T13:47:51.636Z,100023.31
2023-04-23T13:50:18.428Z,100007.38
2023-04-23T13:52:45.230Z,100009.59
2023-04-23T13:55:11.979Z,100006.50
2023-04-23T13:57:38.764Z,100000.38
2023-04-23T14:00:05.718Z,99991.38
2023-04-23T14:02:32.650Z,99986.34
2023-04-23T14:04:59.509Z,99990.16
2023-04-23T14:07:26.248Z,99982.47
2023-04-23T14:09:53.048Z,99981.50
2023-04-23T14:12:19.905Z,99977.63
2023-04-23T14:14:46.660Z,99970.84
2023-04-23T14:17:13.413Z,99983.72
2023-04-23T14:19:40.415Z,99975.31
2023-04-23T14:22:07.322Z,99969.72
2023-04-23T14:24:34.125Z,99984.59
2023-04-23T14:29:28.789Z,99968.75
2023-04-23T14:31:55.911Z,99967.75
2023-04-23T14:34:22.740Z,99968.53
2023-04-23T14:36:49.586Z,99956.84
2023-04-23T14:39:16.787Z,99958.22
2023-04-23T14:41:43.574Z,99962.41
2023-04-23T14:44:10.315Z,99953.03
2023-04-23T14:46:37.115Z,99952.81
2023-04-23T14:49:03.971Z,99939.06
2023-04-23T14:51:31.171Z,99937.03
2023-04-23T14:53:57.921Z,99936.31
2023-04-23T14:56:24.751Z,99918.13
2023-04-23T14:58:51.494Z,99934.28
2023-04-23T15:01:18.376Z,99931.31
2023-04-23T15:03:45.502Z,99921.00
2023-04-23T15:06:12.443Z,99926.72
2023-04-23T15:08:39.301Z,99928.16
2023-04-23T15:11:12.923Z,99912.38
2023-04-23T15:13:39.665Z,99912.28
2023-04-23T15:16:06.470Z,99906.69
2023-04-23T15:18:33.892Z,99912.44
2023-04-23T15:21:03.637Z,99912.00
2023-04-23T15:23:30.528Z,99909.50
2023-04-23T15:25:57.308Z,99917.56
2023-04-23T15:28:24.907Z,99904.84
2023-04-23T15:30:51.679Z,99899.66
2023-04-23T15:33:21.474Z,99903.34
2023-04-23T15:35:51.081Z,99905.13
2023-04-23T15:38:17.832Z,99898.81
2023-04-23T15:40:44.674Z,99900.91
2023-04-23T15:43:12.340Z,99899.22
2023-04-23T15:45:39.105Z,99889.53
2023-04-23T15:48:05.985Z,99891.09
2023-04-23T15:50:32.771Z,99890.00
2023-04-23T15:53:01.441Z,99891.53
2023-04-23T15:55:28.270Z,99884.16
2023-04-23T15:57:55.117Z,99890.72
2023-04-23T16:00:21.856Z,99889.44
2023-04-23T16:02:48.701Z,99888.13
2023-04-23T16:05:15.557Z,99879.19
2023-04-23T16:07:42.384Z,99873.38
2023-04-23T16:10:09.227Z,99868.38
2023-04-23T16:12:36.819Z,99870.91
2023-04-23T16:15:03.723Z,99867.09
2023-04-23T16:17:31.269Z,99861.41
2023-04-23T16:19:58.082Z,99862.22
2023-04-23T16:22:25.415Z,99865.72
2023-04-23T16:24:52.234Z,99867.53
2023-04-23T16:27:18.982Z,99864.84
2023-04-23T16:29:45.744Z,99865.47
2023-04-23T16:32:12.552Z,99859.13
2023-04-23T16:34:39.353Z,99858.13
2023-04-23T16:37:06.233Z,99851.97
2023-04-23T16:39:33.214Z,99843.59
2023-04-23T16:42:00.028Z,99843.91
2023-04-23T16:44:26.780Z,99833.63
2023-04-23T16:46:53.584Z,99832.88
2023-04-23T16:49:21.785Z,99831.41
2023-04-23T16:51:48.923Z,99829.69
2023-04-23T16:54:15.722Z,99828.31
2023-04-23T16:56:45.150Z,99836.22
2023-04-23T16:59:11.872Z,99825.94
2023-04-23T17:01:38.672Z,99828.66
2023-04-23T17:04:05.629Z,99829.00
2023-04-23T17:06:32.516Z,99818.94
2023-04-23T17:08:59.312Z,99817.03
2023-04-23T17:11:26.102Z,99813.28
2023-04-23T17:13:52.832Z,99803.06
2023-04-23T17:16:19.699Z,99798.38
2023-04-23T17:18:46.575Z,99800.19
2023-04-23T17:21:13.307Z,99800.78
2023-04-23T17:23:40.299Z,99792.00
2023-04-23T17:26:07.162Z,99795.13
2023-04-23T17:28:33.937Z,99788.41
2023-04-23T17:31:01.262Z,99796.91
2023-04-23T17:33:28.322Z,99795.50
2023-04-23T17:35:55.757Z,99789.03
2023-04-23T17:38:22.743Z,99783.53
2023-04-23T17:40:49.720Z,99778.81
2023-04-23T17:43:16.585Z,99779.91
2023-04-23T17:45:43.401Z,99782.47
2023-04-23T17:48:10.169Z,99784.16
2023-04-23T17:50:36.912Z,99790.75
2023-04-23T17:53:03.849Z,99787.47
2023-04-23T17:55:32.866Z,99781.72
2023-04-23T17:58:01.058Z,99786.22
2023-04-23T18:00:28.574Z,99778.06
2023-04-23T18:02:56.010Z,99780.94
2023-04-23T18:05:22.894Z,99779.16
2023-04-23T18:07:49.704Z,99775.41
2023-04-23T18:10:16.446Z,99786.63
2023-04-23T18:12:43.250Z,99780.47
2023-04-23T18:15:12.231Z,99781.16
2023-04-23T18:17:39.055Z,99781.78
2023-04-23T18:20:09.820Z,99790.16
2023-04-23T18:22:37.299Z,99785.59
2023-04-23T18:25:04.325Z,99786.41
2023-04-23T18:27:33.414Z,99786.88
2023-04-23T18:30:00.907Z,99788.38
2023-04-23T18:32:34.564Z,99788.50
2023-04-23T18:35:02.454Z,99786.56
2023-04-23T18:37:29.378Z,99786.75
2023-04-23T18:39:58.297Z,99784.28
2023-04-23T18:42:25.134Z,99774.09
2023-04-23T18:44:52.119Z,99776.88
2023-04-23T18:47:19.112Z,99785.34
2023-04-23T18:49:45.887Z,99781.47
2023-04-23T18:52:12.720Z,99778.25
2023-04-23T18:54:39.453Z,99782.03
2023-04-23T18:57:06.269Z,99775.09
2023-04-23T18:59:35.721Z,99774.84
2023-04-23T19:02:03.676Z,99782.72
2023-04-23T19:04:30.917Z,99779.59
2023-04-23T19:06:57.782Z,99774.19
2023-04-23T19:09:24.607Z,99776.25
2023-04-23T19:11:51.371Z,99777.31
2023-04-23T19:14:19.365Z,99773.25
2023-04-23T19:16:46.172Z,99783.13
2023-04-23T19:19:12.984Z,99775.44
2023-04-23T19:21:39.806Z,99772.78
2023-04-23T19:24:06.618Z,99766.72
2023-04-23T19:26:33.399Z,99769.38
2023-04-23T19:29:00.282Z,99767.63
2023-04-23T19:31:27.498Z,99770.50
2023-04-23T19:33:54.373Z,99771.53
2023-04-23T19:36:21.927Z,99763.19
2023-04-23T19:38:48.652Z,99764.97
2023-04-23T19:41:15.481Z,99763.56
2023-04-23T19:43:42.264Z,99761.41
2023-04-23T19:46:09.011Z,99755.34
2023-04-23T19:48:35.831Z,99757.72
2023-04-23T19:51:02.569Z,99748.44
2023-04-23T19:53:30.452Z,99761.81
2023-04-23T19:55:57.206Z,99754.75
2023-04-23T19:58:23.948Z,99748.13
2023-04-23T20:00:52.082Z,99745.78
2023-04-23T20:03:18.946Z,99747.22
2023-04-23T20:05:46.053Z,99732.31
2023-04-23T20:08:15.173Z,99732.22
2023-04-23T20:10:42.097Z,99729.75
2023-04-23T20:13:08.847Z,99736.97
2023-04-23T20:15:36.616Z,99727.34
2023-04-23T20:18:03.512Z,99733.56
2023-04-23T20:20:30.403Z,99725.69
2023-04-23T20:22:57.215Z,99724.41
2023-04-23T20:25:25.792Z,99724.34
2023-04-23T20:27:52.800Z,99717.94
2023-04-23T20:30:19.672Z,99715.13
2023-04-23T20:32:46.642Z,99726.88
2023-04-23T20:35:13.667Z,99707.94
2023-04-23T20:37:40.717Z,99705.38
2023-04-23T20:40:07.809Z,99699.16
2023-04-23T20:42:38.904Z,99697.97
2023-04-23T20:45:07.561Z,99701.03
2023-04-23T20:47:34.589Z,99696.38
2023-04-23T20:50:01.590Z,99694.44
2023-04-23T20:52:28.351Z,99682.63
2023-04-23T20:54:55.248Z,99681.09
2023-04-23T20:57:21.970Z,99682.44
2023-04-23T20:59:48.759Z,99679.47
2023-04-23T21:02:15.613Z,99680.63
2023-04-23T21:04:42.446Z,99681.78
2023-04-23T21:07:09.225Z,99680.75
2023-04-23T21:09:35.986Z,99672.78
2023-04-23T21:12:02.745Z,99667.03
2023-04-23T21:14:29.470Z,99661.22
2023-04-23T21:16:56.844Z,99661.91
2023-04-23T21:19:23.587Z,99661.19
2023-04-23T21:21:50.372Z,99653.47
2023-04-23T21:24:17.125Z,99650.88
2023-04-23T21:26:43.870Z,99646.53
2023-04-23T21:29:11.339Z,99649.13
2023-04-23T21:31:38.628Z,99643.16
2023-04-23T21:34:05.416Z,99639.34
2023-04-23T21:36:32.426Z,99636.66
2023-04-23T21:38:59.289Z,99634.78
2023-04-23T21:41:26.121Z,99630.72
2023-04-23T21:43:52.865Z,99641.34
2023-04-23T21:46:19.631Z,99632.97
2023-04-23T21:48:47.057Z,99639.47
2023-04-23T21:51:14.217Z,99643.19
2023-04-23T21:53:41.047Z,99639.81
2023-04-23T21:56:07.810Z,99639.47
2023-04-23T21:58:35.808Z,99643.44
2023-04-23T22:01:02.617Z,99644.19
2023-04-23T22:03:38.629Z,99633.63
2023-04-23T22:06:06.263Z,99640.09
2023-04-23T22:08:33.065Z,99635.31
2023-04-23T22:10:59.850Z,99632.13
2023-04-23T22:13:26.695Z,99635.06
2023-04-23T22:15:53.436Z,99628.66
2023-04-23T22:18:20.456Z,99622.63
2023-04-23T22:20:50.787Z,99618.84
2023-04-23T22:23:17.547Z,99616.50
2023-04-23T22:25:44.665Z,99610.59
2023-04-23T22:28:11.440Z,99606.56
2023-04-23T22:30:38.188Z,99612.75
2023-04-23T22:33:05.143Z,99612.13
2023-04-23T22:35:32.129Z,99601.50
2023-04-23T22:37:58.927Z,99605.25
2023-04-23T22:40:25.681Z,99605.44
2023-04-23T22:42:52.513Z,99602.88
2023-04-23T22:45:19.254Z,99597.91
2023-04-23T22:47:46.439Z,99593.63
2023-04-23T22:50:13.216Z,99586.22
2023-04-23T22:52:40.483Z,99583.25
2023-04-23T22:55:07.344Z,99580.38
2023-04-23T22:57:34.137Z,99571.34
2023-04-23T23:00:00.923Z,99575.28
2023-04-23T23:02:27.787Z,99571.88
2023-04-23T23:04:54.805Z,99572.06
2023-04-23T23:07:21.575Z,99566.38
2023-04-23T23:09:48.357Z,99563.91
2023-04-23T23:12:15.183Z,99560.22
2023-04-23T23:14:41.908Z,99560.53
2023-04-23T23:17:08.649Z,99583.31
2023-04-23T23:19:35.562Z,99586.72
2023-04-23T23:22:02.307Z,99602.16
2023-04-23T23:24:29.043Z,99587.88
2023-04-23T23:26:55.832Z,99581.19
2023-04-23T23:29:22.682Z,99579.69
2023-04-23T23:31:49.612Z,99580.88
2023-04-23T23:34:16.451Z,99574.84
2023-04-23T23:36:45.005Z,99562.31
2023-04-23T23:39:13.108Z,99565.97
2023-04-23T23:41:39.885Z,99562.84
2023-04-23T23:44:06.708Z,99566.47
2023-04-23T23:46:33.571Z,99568.63
2023-04-23T23:49:00.522Z,99567.09
2023-04-23T23:51:28.912Z,99566.91
2023-04-23T23:53:55.704Z,99566.44
2023-04-23T23:56:22.538Z,99568.88
2023-04-23T23:58:49.307Z,99570.41
